• Join FlightAware (Why Join?)
  • Login
  • US Flag 
04:59AM EDT


 

Airport Tracker/Info


-or-


 

Live Flight TrackerFlight Track Log ✈ EJA831 ✈ 21-May-2013 ✈ KVRB - KPVD

Flight Track Log - Related Links

Times and Time Zones

All times are in EDT time to prevent confusion due to time zone crossing. See the EJA831 flight status page for this flight to view local times or setup timezone preferences in your user account.

Time Position Orientation Groundspeed Altitude Reporting Facility
EDT Latitude Longitude Course Direction KTS MPH feet Rate Location/Type
02:02PM 28.1540 -80.9374 319° Northwest  Level FlightAware Approximate
02:03PM 28.2407 -81.0241 319° Northwest  Level FlightAware Approximate
02:04PM 28.3275 -81.1108 319° Northwest  Level FlightAware Approximate
02:05PM 28.4142 -81.1975 319° Northwest  Level FlightAware Approximate
02:18PM 27.6606 -80.3831 319° Northwest 397 457 1,600  Level Miami Center
02:19PM 27.7319 -80.3594 16° North 219 252 3,000 900 Climbing Miami Center
02:20PM 27.7914 -80.3192 31° Northeast 242 278 3,400 1,200 Climbing Miami Center
02:21PM 27.8553 -80.3492 337° Northwest 220 253 5,500 2,040 Climbing Miami Center
02:22PM 27.9172 -80.3864 332° Northwest 238 274 7,500 2,220 Climbing Miami Center
02:23PM 27.9956 -80.4217 338° Northwest 269 310 10,000 2,700 Climbing Miami Center
02:24PM 28.0847 -80.4408 349° North 299 344 13,000 2,400 Climbing Miami Center
02:25PM 28.1678 -80.4578 350° North 306 352 14,900 1,680 Climbing Miami Center
02:26PM 28.2550 -80.4792 348° North 311 358 16,400 1,860 Climbing Miami Center
02:27PM 28.3478 -80.5225 338° Northwest 316 364 18,700 1,980 Climbing Miami Center
02:29PM 28.4944 -80.5944 337° Northwest 349 402 21,900 1,620 Climbing Jacksonville Center
02:30PM 28.5850 -80.6394 336° Northwest 354 407 23,300 1,500 Climbing Jacksonville Center
02:31PM 28.6797 -80.6872 336° Northwest 360 414 24,900 1,440 Climbing Jacksonville Center
02:32PM 28.7744 -80.7325 337° Northwest 360 414 26,200 1,320 Climbing Jacksonville Center
02:33PM 28.8714 -80.7800 337° Northwest 366 421 27,600 1,500 Climbing Jacksonville Center
02:34PM 28.9703 -80.8278 337° Northwest 372 428 29,200 1,800 Climbing Jacksonville Center
02:35PM 29.0650 -80.8781 335° Northwest 372 428 31,200 1,740 Climbing Jacksonville Center
02:36PM 29.1594 -80.9214 338° Northwest 372 428 32,700 900 Climbing Jacksonville Center
02:37PM 29.2542 -80.9767 333° Northwest 377 434 33,000 600 Climbing Jacksonville Center
02:38PM 29.3450 -81.0486 325° Northwest 391 450 34,000 1,260 Climbing Jacksonville Center
02:39PM 29.4336 -81.1186 325° Northwest 391 450 35,600 960 Climbing Jacksonville Center
02:40PM 29.5328 -81.1836 330° Northwest 384 442 36,000 180 Climbing Jacksonville Center
02:41PM 29.6436 -81.1983 353° North 378 435 36,000  Level Jacksonville Center
02:42PM 29.7583 -81.1917 North 391 450 36,000  Level Jacksonville Center
02:43PM 29.8706 -81.1514 17° North 397 457 36,000 720 Level Jacksonville Center
02:44PM 29.9808 -81.1231 13° North 405 466 37,500 1,500 Climbing Jacksonville Center
02:45PM 30.0833 -81.1450 350° North 390 449 39,100 1,620 Climbing Jacksonville Center
02:46PM 30.1756 -81.1697 347° North 368 423 40,800 900 Climbing Jacksonville Center
02:47PM 30.2697 -81.1944 347° North 345 397 41,000 60 Climbing Jacksonville Center
02:48PM 30.3600 -81.2169 348° North 352 405 41,000  Level Jacksonville Center
02:49PM 30.4603 -81.2394 349° North 363 418 41,000  Level Jacksonville Center
02:50PM 30.5631 -81.2664 347° North 368 423 41,000  Level Jacksonville Center
02:51PM 30.6678 -81.2914 348° North 373 429 41,000  Level Jacksonville Center
02:52PM 30.7767 -81.3064 353° North 378 435 41,000  Level Jacksonville Center
02:53PM 30.8783 -81.2636 20° North 378 435 41,000  Level Jacksonville Center
02:54PM 30.9778 -81.2036 27° Northeast 378 435 41,000  Level Jacksonville Center
02:55PM 31.0772 -81.1436 27° Northeast 390 449 41,000  Level Jacksonville Center
02:56PM 31.1786 -81.0836 27° Northeast 395 455 41,000  Level Jacksonville Center
02:57PM 31.2758 -81.0233 28° Northeast 395 455 41,000  Level Jacksonville Center
02:58PM 31.3772 -80.9606 28° Northeast 400 460 41,000  Level Jacksonville Center
02:59PM 31.4911 -80.8947 26° Northeast 406 467 41,000  Level Jacksonville Center
03:00PM 31.5800 -80.8392 28° Northeast 406 467 41,000  Level Jacksonville Center
03:01PM 31.6936 -80.7756 25° Northeast 406 467 41,000  Level Jacksonville Center
03:02PM 31.7928 -80.7122 28° Northeast 406 467 41,000  Level Jacksonville Center
03:03PM 31.8839 -80.6586 27° Northeast 406 467 41,000  Level Jacksonville Center
03:04PM 31.9975 -80.5922 26° Northeast 406 467 41,000  Level Jacksonville Center
03:05PM 32.0861 -80.5361 28° Northeast 400 460 41,000  Level Jacksonville Center
03:06PM 32.1956 -80.4669 28° Northeast 400 460 41,000  Level Jacksonville Center
03:07PM 32.3008 -80.4053 26° Northeast 406 467 41,000  Level Jacksonville Center
03:08PM 32.4039 -80.3433 27° Northeast 406 467 41,000  Level Jacksonville Center
03:09PM 32.5050 -80.2789 28° Northeast 406 467 41,000  Level Jacksonville Center
03:10PM 32.6081 -80.2144 28° Northeast 406 467 41,000  Level Jacksonville Center
03:11PM 32.7089 -80.1522 27° Northeast 406 467 41,000  Level Jacksonville Center
03:12PM 32.8117 -80.0847 29° Northeast 406 467 41,000  Level Jacksonville Center
03:13PM 32.9042 -80.0200 30° Northeast 406 467 41,000  Level Jacksonville Center
03:14PM 32.9961 -79.9353 38° Northeast 418 481 41,000  Level Jacksonville Center
03:15PM 33.0881 -79.8456 39° Northeast 423 487 41,000  Level Jacksonville Center
03:16PM 33.1797 -79.7606 38° Northeast 418 481 41,000  Level Jacksonville Center
03:17PM 33.2717 -79.6728 39° Northeast 418 481 41,000  Level Jacksonville Center
03:18PM 33.3611 -79.5850 39° Northeast 418 481 41,000  Level Jacksonville Center
03:19PM 33.4525 -79.4944 40° Northeast 418 481 41,000  Level Jacksonville Center
03:20PM 33.5442 -79.4064 39° Northeast 418 481 41,000  Level Jacksonville Center
03:21PM 33.6356 -79.3178 39° Northeast 418 481 41,000  Level Jacksonville Center
03:22PM 33.7289 -79.2217 41° Northeast 412 474 41,000  Level Jacksonville Center
03:24PM 33.9133 -79.0425 39° Northeast 412 474 41,000  Level Washington Center
03:25PM 34.0058 -78.9511 39° Northeast 412 474 41,000  Level Washington Center
03:26PM 34.0958 -78.8644 39° Northeast 412 474 41,000  Level Washington Center
03:27PM 34.1881 -78.7703 40° Northeast 412 474 41,000  Level Washington Center
03:28PM 34.2822 -78.6783 39° Northeast 418 481 41,000  Level Washington Center
03:29PM 34.3722 -78.5861 40° Northeast 418 481 41,000  Level Washington Center
03:30PM 34.4664 -78.4939 39° Northeast 423 487 41,000  Level Washington Center
03:31PM 34.5564 -78.3961 42° Northeast 418 481 41,000  Level Washington Center
03:32PM 34.6458 -78.3108 38° Northeast 423 487 41,000  Level Washington Center
03:33PM 34.7378 -78.2153 40° Northeast 423 487 41,000  Level Washington Center
03:34PM 34.8167 -78.1294 42° Northeast 418 481 41,000  Level Washington Center
03:35PM 34.9042 -78.0383 40° Northeast 418 481 41,000  Level Washington Center
03:36PM 34.9958 -77.9450 40° Northeast 418 481 41,000  Level Washington Center
03:37PM 35.0831 -77.8536 41° Northeast 418 481 41,000  Level Washington Center
03:38PM 35.1747 -77.7569 41° Northeast 418 481 41,000  Level Washington Center
03:39PM 35.2681 -77.6653 39° Northeast 418 481 41,000  Level Washington Center
03:40PM 35.3594 -77.5708 40° Northeast 418 481 41,000 180 Level Washington Center
03:41PM 35.4547 -77.4842 37° Northeast 418 481 41,400 660 Climbing Washington Center
03:42PM 35.5478 -77.4044 35° Northeast 418 481 42,400 960 Climbing Washington Center
03:43PM 35.6386 -77.3247 35° Northeast 407 468 43,400 960 Climbing Washington Center
03:44PM 35.7231 -77.2525 35° Northeast 388 447 44,400 780 Climbing Washington Center
03:45PM 35.8033 -77.1772 37° Northeast 374 430 45,000 300 Climbing Washington Center
03:46PM 35.8836 -77.1047 36° Northeast 362 417 45,000  Level Washington Center
03:47PM 35.9700 -77.0292 35° Northeast 362 417 45,000  Level Washington Center
03:48PM 36.0586 -76.9511 35° Northeast 367 422 45,000  Level Washington Center
03:49PM 36.1472 -76.8731 35° Northeast 378 435 45,000  Level Washington Center
03:50PM 36.2333 -76.7944 36° Northeast 384 442 45,000  Level Washington Center
03:51PM 36.3261 -76.7133 35° Northeast 389 448 45,000  Level Washington Center
03:52PM 36.4144 -76.6347 36° Northeast 389 448 45,000  Level Washington Center
03:53PM 36.5028 -76.5558 36° Northeast 394 453 45,000  Level Washington Center
03:54PM 36.5931 -76.4767 35° Northeast 389 448 45,000  Level Washington Center
03:55PM 36.6833 -76.3947 36° Northeast 389 448 45,000  Level Washington Center
03:56PM 36.7819 -76.2972 38° Northeast 394 453 45,000  Level Washington Center
03:57PM 36.8722 -76.2150 36° Northeast 394 453 45,000  Level Washington Center
03:58PM 36.9725 -76.1561 25° Northeast 394 453 45,000  Level Washington Center
03:59PM 37.0853 -76.1075 19° North 394 453 45,000  Level Washington Center
04:00PM 37.1878 -76.0508 24° Northeast 394 453 45,000  Level Washington Center
04:01PM 37.2903 -75.9939 24° Northeast 394 453 45,000  Level Washington Center
04:02PM 37.3906 -75.9394 23° Northeast 399 459 45,000  Level Washington Center
04:03PM 37.4950 -75.8850 22° Northeast 399 459 45,000  Level Washington Center
04:04PM 37.5953 -75.8197 27° Northeast 399 459 45,000  Level Washington Center
04:05PM 37.6933 -75.7467 31° Northeast 393 452 45,000  Level Washington Center
04:06PM 37.7894 -75.6733 31° Northeast 393 452 45,000  Level Washington Center
04:07PM 37.8853 -75.6022 30° Northeast 398 458 45,000  Level Washington Center
04:08PM 37.9833 -75.5286 31° Northeast 398 458 45,000  Level Washington Center
04:09PM 38.0792 -75.4494 33° Northeast 398 458 45,000  Level Washington Center
04:10PM 38.1667 -75.3567 40° Northeast 403 464 45,000  Level Washington Center
04:11PM 38.2539 -75.2639 40° Northeast 403 464 45,000  Level Washington Center
04:12PM 38.3289 -75.1761 43° Northeast 403 464 45,000  Level Washington Center
04:13PM 38.4161 -75.0908 37° Northeast 403 464 45,000  Level Washington Center
04:14PM 38.5031 -75.0000 39° Northeast 403 464 45,000  Level Washington Center
04:15PM 38.5903 -74.9036 41° Northeast 403 464 45,000  Level Washington Center
04:16PM 38.6792 -74.8097 39° Northeast 404 465 45,000  Level Washington Center
04:17PM 38.7661 -74.7183 39° Northeast 404 465 45,000  Level Washington Center
04:18PM 38.8550 -74.6214 40° Northeast 404 465 45,000  Level Washington Center
04:19PM 38.9419 -74.5294 39° Northeast 404 465 45,000  Level Washington Center
04:20PM 39.0286 -74.4347 40° Northeast 399 459 45,000  Level Washington Center
04:21PM 39.1150 -74.3397 40° Northeast 399 459 45,000  Level Washington Center
04:22PM 39.2036 -74.2444 40° Northeast 404 465 45,000  Level Washington Center
04:23PM 39.2881 -74.1542 40° Northeast 397 457 45,000 -60 Level Washington Center
04:24PM 39.3806 -74.0531 40° Northeast 403 464 44,900 -780 Descending Washington Center
04:25PM 39.4689 -73.9569 40° Northeast 408 470 43,500 -1,680 Descending Washington Center
04:27PM 39.6947 -73.7044 41° Northeast 424 488 39,100 -1,740 Descending Boston Center
04:28PM 39.7792 -73.5981 44° Northeast 419 482 37,500 -1,080 Descending Boston Center
04:29PM 39.8511 -73.5047 45° Northeast 424 488 37,000 -300 Descending Boston Center
04:30PM 39.9564 -73.3767 43° Northeast 434 499 37,000  Level Boston Center
04:31PM 40.0425 -73.2667 44° Northeast 434 499 37,000 -600 Level Boston Center
04:32PM 40.1289 -73.1511 46° Northeast 434 499 35,900 -1,380 Descending Boston Center
04:33PM 40.1981 -73.0622 44° Northeast 434 499 34,300 -2,220 Descending Boston Center
04:34PM 40.3050 -72.9164 46° Northeast 439 505 31,500 -2,520 Descending Boston Center
04:35PM 40.3889 -72.8025 46° Northeast 439 505 29,300 -2,280 Descending Boston Center
04:36PM 40.4744 -72.6883 45° Northeast 434 499 27,000 -2,400 Descending Boston Center
04:37PM 40.5581 -72.5739 46° Northeast 434 499 24,500 -2,460 Descending Boston Center
04:38PM 40.6417 -72.4647 45° Northeast 429 494 22,100 -2,400 Descending Boston Center
04:39PM 40.7206 -72.3606 45° Northeast 414 476 19,700 -2,520 Descending Boston Center
04:40PM 40.8061 -72.2508 44° Northeast 398 458 17,100 -2,280 Descending Boston Center
04:41PM 40.8786 -72.1519 46° Northeast 376 433 15,200 -1,920 Descending Boston Center
04:42PM 40.9119 -72.1189 37° Northeast 356 410 14,400 -1,740 Descending Boston Center
04:42PM 40.9472 -72.0581 52° Northeast 369 425 13,500 -1,740 Descending Boston Center
04:43PM 40.9886 -72.0111 41° Northeast 351 404 12,500 -1,500 Descending Boston Center
04:43PM 41.0156 -71.9669 51° Northeast 349 402 12,000 -1,500 Descending Boston Center
04:44PM 41.0550 -71.9172 44° Northeast 350 403 11,000 -1,440 Descending Boston Center
04:44PM 41.0756 -71.8894 46° Northeast 339 390 10,600 -1,620 Descending Boston Center
04:45PM 41.1108 -71.8311 51° Northeast 310 357 9,400 -1,740 Descending Boston Center
04:45PM 41.1336 -71.7981 48° Northeast 309 356 8,900 -1,620 Descending Boston Center
04:46PM 41.1625 -71.7453 54° Northeast 300 345 7,800 -1,740 Descending Boston Center
04:47PM 41.2139 -71.6647 50° Northeast 292 336 6,200 -1,440 Descending Boston Center
04:48PM 41.2633 -71.5842 51° Northeast 283 326 5,000 -600 Descending Boston Center
04:49PM 41.3150 -71.5058 49° Northeast 280 322 5,000  Level Boston Center
04:50PM 41.3600 -71.4306 51° Northeast 281 323 5,000  Level Boston Center
04:51PM 41.4264 -71.3936 23° Northeast 277 319 5,000  Level Boston Center
04:52PM 41.4972 -71.3842 North 223 257 5,000  Level Boston Center
04:53PM 41.5556 -71.3831 North 210 242 5,000  Level Boston Center
04:54PM 41.6117 -71.3711 North 209 241 5,000 -420 Level Boston Center
04:55PM 41.6633 -71.3258 33° Northeast 212 244 4,200 -1,140 Descending Boston Center
04:56PM 41.7217 -71.3081 13° North 195 224 2,600 -1,620 Descending Boston Center